createdAt,value
2023-11-23T05:13:26.414Z,18.90
2023-11-23T05:15:54.504Z,22.17
2023-11-23T05:18:25.259Z,22.35
2023-11-23T05:20:52.947Z,23.48
2023-11-23T05:23:20.550Z,24.48
2023-11-23T05:25:48.178Z,24.25
2023-11-23T05:28:15.751Z,25.73
2023-11-23T05:30:43.561Z,25.38
2023-11-23T05:33:11.440Z,30.13
2023-11-23T05:35:39.342Z,23.70
2023-11-23T05:38:07.883Z,24.52
2023-11-23T05:40:35.591Z,24.75
2023-11-23T05:43:05.951Z,26.38
2023-11-23T05:45:34.884Z,24.40
2023-11-23T05:48:03.061Z,27.27
2023-11-23T05:50:31.373Z,26.00
2023-11-23T05:52:59.146Z,26.60
2023-11-23T05:55:30.518Z,28.33
2023-11-23T06:00:35.900Z,28.60
2023-11-23T06:03:04.452Z,27.10
2023-11-23T06:05:32.520Z,27.48
2023-11-23T06:08:01.762Z,25.75
2023-11-23T06:10:35.866Z,27.48
2023-11-23T06:13:16.976Z,26.85
2023-11-23T06:16:00.976Z,29.13
2023-11-23T06:18:44.556Z,26.98
2023-11-23T06:21:33.778Z,27.27
2023-11-23T06:24:01.881Z,28.58
2023-11-23T06:32:09.265Z,28.85
2023-11-23T06:34:40.353Z,30.63
2023-11-23T06:37:08.945Z,29.60
2023-11-23T06:39:40.310Z,29.13
2023-11-23T06:42:08.329Z,27.88
2023-11-23T06:44:37.016Z,28.98
2023-11-23T06:47:05.716Z,27.40
2023-11-23T06:49:36.923Z,31.73
2023-11-23T06:54:41.085Z,32.10
2023-11-23T06:57:09.272Z,32.70
2023-11-23T06:59:39.413Z,30.17
2023-11-23T07:02:07.639Z,30.83
2023-11-23T07:04:43.010Z,29.70
2023-11-23T07:07:11.500Z,30.63
2023-11-23T07:09:41.531Z,30.08
2023-11-23T07:12:10.118Z,29.13
2023-11-23T07:14:40.371Z,30.17
2023-11-23T07:17:08.379Z,30.13
2023-11-23T07:22:18.329Z,32.10
2023-11-23T07:24:46.018Z,34.35
2023-11-23T07:27:14.353Z,30.92
2023-11-23T07:29:42.182Z,32.45
2023-11-23T07:32:10.727Z,33.28
2023-11-23T07:34:42.792Z,33.05
2023-11-23T07:37:11.598Z,29.65
2023-11-23T07:39:43.872Z,29.10
2023-11-23T07:42:11.626Z,31.10
2023-11-23T07:44:47.041Z,28.98
2023-11-23T07:47:15.863Z,26.67
2023-11-23T07:49:46.688Z,28.70
2023-11-23T07:52:15.146Z,36.40
2023-11-23T07:54:46.878Z,28.95
2023-11-23T07:57:16.920Z,26.85
2023-11-23T07:59:46.970Z,28.48
2023-11-23T08:02:15.215Z,30.52
2023-11-23T08:04:47.349Z,35.08
2023-11-23T08:07:15.261Z,28.08
2023-11-23T08:09:51.561Z,26.20
2023-11-23T08:12:19.756Z,26.30
2023-11-23T08:14:47.912Z,26.20
2023-11-23T08:17:16.178Z,24.90
2023-11-23T08:19:52.372Z,24.70
2023-11-23T08:22:21.181Z,25.42
2023-11-23T08:24:49.657Z,26.10
2023-11-23T08:27:17.516Z,23.27
2023-11-23T08:29:53.331Z,22.60
2023-11-23T08:32:23.684Z,21.50
2023-11-23T08:34:52.300Z,22.53
2023-11-23T08:37:20.420Z,24.10
2023-11-23T08:39:51.294Z,20.00
2023-11-23T08:42:20.409Z,21.60
2023-11-23T08:44:52.095Z,20.95
2023-11-23T08:47:19.892Z,19.95
2023-11-23T08:52:29.253Z,18.27
2023-11-23T08:54:57.160Z,23.17
2023-11-23T08:57:24.954Z,16.33
2023-11-23T08:59:54.385Z,17.98
2023-11-23T09:02:22.949Z,17.08
2023-11-23T09:04:54.557Z,16.63
2023-11-23T09:07:22.335Z,17.95
2023-11-23T09:09:57.848Z,20.30
2023-11-23T09:12:26.387Z,20.67
2023-11-23T09:14:58.117Z,17.45
2023-11-23T09:17:26.280Z,17.63
2023-11-23T09:20:01.373Z,16.65
2023-11-23T09:22:29.289Z,19.13
2023-11-23T09:24:57.674Z,17.70
2023-11-23T09:27:25.590Z,17.15
2023-11-23T09:30:00.871Z,18.35
2023-11-23T09:32:31.688Z,16.20
2023-11-23T09:34:59.433Z,20.95
2023-11-23T09:37:27.331Z,21.95
2023-11-23T09:39:59.207Z,15.85
2023-11-23T09:42:30.479Z,14.98
2023-11-23T09:47:33.334Z,16.38
2023-11-23T09:50:02.309Z,16.50
2023-11-23T09:52:30.589Z,17.05
2023-11-23T09:55:01.449Z,15.85
2023-11-23T09:57:29.606Z,14.65
2023-11-23T10:00:07.607Z,16.13
2023-11-23T10:02:39.170Z,19.00
2023-11-23T10:05:10.806Z,16.65
2023-11-23T10:07:41.483Z,18.33
2023-11-23T10:10:09.843Z,13.73
2023-11-23T10:12:38.304Z,15.30
2023-11-23T10:15:07.880Z,16.58
2023-11-23T10:17:35.822Z,12.30
2023-11-23T10:20:09.233Z,12.68
2023-11-23T10:22:37.244Z,12.13
2023-11-23T10:25:06.650Z,11.25
2023-11-23T10:27:34.967Z,11.60
2023-11-23T10:30:05.838Z,13.10
2023-11-23T10:32:34.506Z,11.07
2023-11-23T10:35:08.892Z,12.27
2023-11-23T10:37:38.517Z,12.80
2023-11-23T10:40:08.750Z,10.77
2023-11-23T10:42:36.893Z,11.33
2023-11-23T10:45:11.887Z,14.25
2023-11-23T10:47:41.389Z,12.50
2023-11-23T10:50:11.101Z,12.00
2023-11-23T10:52:40.452Z,12.30
2023-11-23T10:55:08.865Z,12.00
2023-11-23T10:57:36.980Z,12.40
2023-11-23T11:00:12.741Z,11.65
2023-11-23T11:02:41.777Z,12.02
2023-11-23T11:05:29.644Z,12.15
2023-11-23T11:08:13.523Z,10.98
2023-11-23T11:10:45.115Z,11.80
2023-11-23T11:13:16.074Z,10.77
2023-11-23T11:15:52.131Z,11.27
2023-11-23T11:18:23.966Z,10.85
2023-11-23T11:21:12.436Z,10.63
2023-11-23T11:23:47.636Z,11.23
2023-11-23T11:26:21.680Z,8.85
2023-11-23T11:28:56.621Z,11.02
2023-11-23T11:31:31.078Z,9.63
2023-11-23T11:33:59.090Z,9.85
2023-11-23T11:36:30.484Z,9.75
2023-11-23T11:39:02.360Z,9.40
2023-11-23T11:41:32.844Z,9.38
2023-11-23T11:44:00.974Z,9.68
2023-11-23T11:46:33.029Z,8.13
2023-11-23T11:49:01.978Z,9.52
2023-11-23T11:51:30.535Z,10.15
2023-11-23T11:54:02.513Z,10.00
2023-11-23T11:56:31.151Z,9.80
2023-11-23T11:59:01.580Z,9.75
2023-11-23T12:04:02.903Z,9.40
2023-11-23T12:06:31.188Z,8.75
2023-11-23T12:08:59.680Z,10.25
2023-11-23T12:11:32.662Z,9.90
2023-11-23T12:14:01.918Z,9.40
2023-11-23T12:16:36.900Z,8.68
2023-11-23T12:19:22.190Z,9.73
2023-11-23T12:21:57.812Z,10.80
2023-11-23T12:24:31.560Z,8.88
2023-11-23T12:26:59.639Z,8.95
2023-11-23T12:35:09.622Z,9.20
2023-11-23T12:37:38.836Z,9.70
2023-11-23T13:17:46.322Z,11.82
2023-11-23T13:29:17.665Z,11.77
2023-11-23T13:31:46.719Z,10.70
2023-11-23T13:34:30.193Z,10.35
2023-11-23T13:37:07.833Z,12.90
2023-11-23T13:48:33.438Z,10.57
2023-11-23T13:51:06.457Z,12.98
2023-11-23T13:53:37.453Z,10.65
2023-11-23T14:01:44.785Z,13.45
2023-11-23T14:09:54.314Z,10.20
2023-11-23T14:15:55.356Z,9.43
2023-11-23T14:18:48.462Z,9.85
2023-11-23T14:21:17.909Z,11.68
2023-11-23T14:23:52.651Z,9.20
2023-11-23T14:26:28.671Z,11.52
2023-11-23T14:29:24.761Z,8.70
2023-11-23T14:31:53.471Z,9.23
2023-11-23T14:34:24.584Z,9.25
2023-11-23T14:37:13.032Z,10.30
2023-11-23T14:39:47.779Z,9.50
2023-11-23T14:42:18.664Z,11.07
2023-11-23T14:44:50.894Z,7.78
2023-11-23T14:47:30.985Z,7.22
2023-11-23T14:52:54.344Z,6.47
2023-11-23T14:55:23.081Z,6.75
2023-11-23T14:57:53.807Z,7.95
2023-11-23T15:00:25.525Z,7.95
2023-11-23T15:02:56.797Z,9.07
2023-11-23T15:05:25.418Z,11.57
2023-11-23T15:11:02.177Z,7.97
2023-11-23T15:13:56.192Z,8.25
2023-11-23T15:16:30.005Z,8.85
2023-11-23T15:24:33.000Z,7.22
2023-11-23T15:27:05.785Z,8.00
2023-11-23T15:29:34.392Z,8.95
2023-11-23T15:32:05.642Z,7.78
2023-11-23T15:34:36.962Z,10.90
2023-11-23T15:40:00.358Z,7.77
2023-11-23T15:42:32.695Z,7.68
2023-11-23T15:45:06.590Z,11.82
2023-11-23T15:55:57.560Z,11.38
2023-11-23T15:58:46.271Z,10.10
2023-11-23T16:04:05.779Z,11.90
2023-11-23T16:06:42.007Z,11.70
2023-11-23T16:09:11.443Z,8.10
2023-11-23T16:15:13.663Z,4.43
2023-11-23T16:20:27.774Z,5.30
2023-11-23T16:22:55.683Z,4.55
2023-11-23T16:25:23.474Z,3.90
2023-11-23T16:27:57.256Z,4.05
2023-11-23T16:30:35.063Z,5.13
2023-11-23T16:33:03.682Z,6.43
2023-11-23T16:35:31.677Z,3.47
2023-11-23T16:38:00.288Z,4.72
2023-11-23T16:40:28.307Z,4.20
2023-11-23T16:42:56.167Z,5.03
2023-11-23T16:45:24.263Z,4.38
2023-11-23T16:47:54.746Z,4.95
2023-11-23T16:50:22.877Z,3.90
2023-11-23T16:52:58.140Z,3.53
2023-11-23T16:55:26.108Z,5.57
2023-11-23T16:58:00.787Z,4.10
2023-11-23T17:00:32.243Z,4.25
2023-11-23T17:03:00.948Z,3.65
2023-11-23T17:05:30.476Z,2.38
2023-11-23T17:07:59.593Z,2.30
2023-11-23T17:10:29.449Z,2.85
2023-11-23T17:12:58.125Z,3.38
2023-11-23T17:18:12.905Z,3.95
2023-11-23T17:20:41.016Z,3.33
2023-11-23T17:23:10.731Z,3.60
2023-11-23T17:25:40.508Z,3.13
2023-11-23T17:33:51.061Z,2.17
2023-11-23T17:36:22.452Z,2.88
2023-11-23T17:38:53.074Z,2.90
2023-11-23T17:41:32.849Z,3.63
2023-11-23T17:44:03.541Z,2.47
2023-11-23T17:46:36.401Z,2.58
2023-11-23T17:49:14.789Z,2.55
2023-11-23T17:51:45.520Z,3.45
2023-11-23T17:54:18.558Z,2.38
2023-11-23T18:02:21.407Z,3.75
2023-11-23T18:04:53.559Z,2.50
2023-11-23T18:07:21.854Z,1.60
2023-11-23T18:09:51.974Z,2.22
2023-11-23T18:12:20.031Z,2.08
2023-11-23T18:14:48.285Z,2.55
2023-11-23T18:17:38.220Z,2.17
2023-11-23T18:20:17.251Z,2.92
2023-11-23T18:22:45.134Z,2.30
2023-11-23T18:25:16.642Z,2.50
2023-11-23T18:27:47.273Z,2.65
2023-11-23T18:30:16.753Z,4.20
2023-11-23T18:32:48.997Z,4.47
2023-11-23T18:35:27.876Z,2.08
2023-11-23T18:38:01.706Z,4.32
2023-11-23T18:43:22.342Z,2.08
2023-11-23T18:46:01.341Z,2.17
2023-11-23T18:50:59.842Z,3.50
2023-11-23T18:53:29.293Z,1.83
2023-11-23T18:55:57.773Z,2.10
2023-11-23T18:58:26.883Z,2.85
2023-11-23T19:00:57.116Z,3.70
2023-11-23T19:03:27.405Z,2.28
2023-11-23T19:08:45.232Z,2.97
2023-11-23T19:26:51.564Z,3.70
2023-11-23T19:29:21.347Z,1.95
2023-11-23T19:38:03.177Z,3.00
2023-11-23T19:40:34.381Z,4.68
2023-11-23T19:43:27.683Z,1.45
2023-11-23T19:45:59.348Z,3.70
2023-11-23T20:38:14.504Z,3.63
2023-11-23T21:00:00.314Z,1.80
2023-11-23T21:40:53.414Z,2.20
2023-11-23T21:43:31.006Z,1.77
2023-11-23T21:45:58.986Z,1.92
2023-11-23T21:48:27.833Z,2.53
2023-11-23T21:50:56.055Z,2.85
2023-11-23T21:53:25.228Z,2.10
2023-11-23T21:55:53.306Z,2.50
2023-11-23T21:58:22.317Z,2.92
2023-11-23T22:00:51.635Z,1.55
2023-11-23T22:03:19.983Z,2.30
2023-11-23T22:05:49.391Z,2.13
2023-11-23T22:08:17.727Z,3.58
2023-11-23T22:10:45.889Z,2.88
2023-11-23T22:13:17.632Z,2.85
2023-11-23T22:15:49.716Z,2.38
2023-11-23T22:18:18.372Z,2.35
2023-11-23T22:20:46.658Z,2.40
2023-11-23T22:23:14.692Z,3.88
2023-11-23T22:25:43.975Z,2.00
2023-11-23T22:28:12.643Z,3.33
2023-11-23T22:30:44.843Z,2.85
2023-11-23T22:33:13.808Z,1.80
2023-11-23T22:35:50.313Z,3.38
2023-11-23T22:38:19.975Z,2.55
2023-11-23T22:40:56.857Z,3.20
2023-11-23T22:46:09.210Z,2.40
2023-11-23T22:48:38.718Z,2.00
2023-11-23T22:51:07.669Z,5.93
2023-11-23T22:56:21.024Z,3.00
2023-11-23T22:58:49.247Z,2.55
2023-11-23T23:12:12.646Z,2.10
2023-11-23T23:14:41.214Z,2.63
2023-11-23T23:17:16.877Z,2.45
2023-11-23T23:22:30.170Z,3.63
2023-11-23T23:24:58.488Z,3.03
2023-11-23T23:27:26.835Z,1.60
2023-11-23T23:29:56.619Z,2.67
2023-11-23T23:32:24.923Z,2.28
2023-11-23T23:34:54.836Z,2.33
2023-11-23T23:37:26.482Z,2.50
2023-11-23T23:39:54.764Z,2.83
2023-11-23T23:42:22.885Z,2.75
2023-11-23T23:44:57.132Z,1.95
2023-11-23T23:47:28.635Z,2.15
2023-11-23T23:49:57.598Z,2.17
2023-11-23T23:55:11.201Z,1.00
2023-11-23T23:57:40.954Z,1.42
